Time,TemperatureF,DewpointF,PressureIn,WindDirection,WindDirectionDegrees,WindSpeedMPH,WindSpeedGustMPH,Humidity,HourlyPrecipIn,Conditions,Clouds,dailyrainin,SoftwareType,DateUTC
2013-09-06 00:01:00,72.4,71.8,30.04,South,182,0.0,0.0,98,0.00,CLR,,0.00,WeatherDisplay:10.37,2013-09-06 04:01:00,
2013-09-06 00:02:00,72.4,71.8,30.04,South,182,0.0,0.0,98,0.00,CLR,,0.00,WeatherDisplay:10.37,2013-09-06 04:02:00,
2013-09-06 00:07:00,72.3,71.7,30.04,South,182,0.0,0.0,98,0.00,CLR,,0.00,WeatherDisplay:10.37,2013-09-06 04:07:00,
2013-09-06 00:12:00,72.2,71.6,30.04,South,182,0.0,0.0,98,0.00,CLR,,0.00,WeatherDisplay:10.37,2013-09-06 04:12:00,
2013-09-06 00:17:00,72.1,71.5,30.05,South,182,0.0,0.0,98,0.00,CLR,,0.00,WeatherDisplay:10.37,2013-09-06 04:17:00,
2013-09-06 00:22:00,72.0,71.4,30.04,South,182,0.0,0.0,98,0.00,CLR,,0.00,WeatherDisplay:10.37,2013-09-06 04:22:00,
2013-09-06 00:27:00,71.9,71.3,30.04,South,182,0.0,0.0,98,0.00,CLR,,0.00,WeatherDisplay:10.37,2013-09-06 04:27:00,
2013-09-06 00:32:00,71.8,71.2,30.05,South,182,0.0,0.0,98,0.00,CLR,,0.00,WeatherDisplay:10.37,2013-09-06 04:32:00,
2013-09-06 00:37:00,71.6,71.0,30.05,South,182,0.0,0.0,98,0.00,CLR,,0.00,WeatherDisplay:10.37,2013-09-06 04:37:00,
2013-09-06 00:42:00,71.5,70.9,30.05,South,182,0.0,0.0,98,0.00,CLR,,0.00,WeatherDisplay:10.37,2013-09-06 04:42:00,
2013-09-06 00:47:00,71.5,70.9,30.05,South,182,0.0,0.0,98,0.00,CLR,,0.00,WeatherDisplay:10.37,2013-09-06 04:47:00,
2013-09-06 00:52:00,71.4,70.8,30.05,South,182,0.0,0.0,98,0.00,CLR,,0.00,WeatherDisplay:10.37,2013-09-06 04:52:00,
2013-09-06 00:57:00,71.4,70.8,30.05,South,182,0.0,0.0,98,0.00,CLR,,0.00,WeatherDisplay:10.37,2013-09-06 04:57:00,
2013-09-06 01:02:00,71.5,70.9,30.05,South,182,0.0,0.0,98,0.00,CLR,,0.00,WeatherDisplay:10.37,2013-09-06 05:02:00,
2013-09-06 01:07:00,71.4,70.8,30.05,South,182,0.0,0.0,98,0.00,CLR,,0.00,WeatherDisplay:10.37,2013-09-06 05:07:00,
2013-09-06 01:12:00,71.3,70.7,30.05,South,182,0.0,0.0,98,0.00,CLR,,0.00,WeatherDisplay:10.37,2013-09-06 05:12:00,
2013-09-06 01:17:00,71.3,71.0,30.05,South,182,1.1,3.5,99,0.00,CLR,,0.00,WeatherDisplay:10.37,2013-09-06 05:17:00,
2013-09-06 01:22:00,71.3,71.0,30.05,South,182,0.0,0.0,99,0.00,CLR,,0.00,WeatherDisplay:10.37,2013-09-06 05:22:00,
2013-09-06 01:27:00,71.2,70.9,30.05,South,182,0.0,0.0,99,0.00,CLR,,0.00,WeatherDisplay:10.37,2013-09-06 05:27:00,
2013-09-06 01:32:00,71.2,70.9,30.05,South,182,0.0,0.0,99,0.00,CLR,,0.00,WeatherDisplay:10.37,2013-09-06 05:32:00,
2013-09-06 01:37:00,71.2,70.9,30.05,South,182,0.0,0.0,99,0.00,CLR,,0.00,WeatherDisplay:10.37,2013-09-06 05:37:00,
2013-09-06 01:42:00,71.3,71.0,30.05,South,182,0.0,0.0,99,0.00,CLR,,0.00,WeatherDisplay:10.37,2013-09-06 05:42:00,
2013-09-06 01:47:00,71.4,71.1,30.05,South,182,0.0,0.0,99,0.00,CLR,,0.00,WeatherDisplay:10.37,2013-09-06 05:47:00,
2013-09-06 01:52:00,71.5,71.2,30.05,South,182,0.0,0.0,99,0.00,CLR,,0.00,WeatherDisplay:10.37,2013-09-06 05:52:00,
2013-09-06 01:57:00,71.5,71.2,30.04,South,182,0.0,0.0,99,0.00,CLR,,0.00,WeatherDisplay:10.37,2013-09-06 05:57:00,
2013-09-06 02:02:00,71.5,71.2,30.04,South,182,0.0,0.0,99,0.00,CLR,,0.00,WeatherDisplay:10.37,2013-09-06 06:02:00,
2013-09-06 02:07:00,71.4,71.1,30.04,South,182,0.0,0.0,99,0.00,CLR,,0.00,WeatherDisplay:10.37,2013-09-06 06:07:00,
2013-09-06 02:12:00,71.4,71.1,30.04,South,182,0.0,0.0,99,0.00,CLR,,0.00,WeatherDisplay:10.37,2013-09-06 06:12:00,
2013-09-06 02:17:00,71.3,71.0,30.04,South,182,0.0,0.0,99,0.00,CLR,,0.00,WeatherDisplay:10.37,2013-09-06 06:17:00,
2013-09-06 02:22:00,71.3,71.0,30.03,South,182,0.0,0.0,99,0.00,CLR,,0.00,WeatherDisplay:10.37,2013-09-06 06:22:00,
2013-09-06 02:27:00,71.3,71.0,30.03,South,182,0.0,0.0,99,0.00,CLR,,0.00,WeatherDisplay:10.37,2013-09-06 06:27:00,
2013-09-06 02:32:00,71.3,71.0,30.03,South,182,0.0,0.0,99,0.00,CLR,,0.00,WeatherDisplay:10.37,2013-09-06 06:32:00,
2013-09-06 02:37:00,71.2,70.9,30.03,South,182,0.0,0.0,99,0.00,CLR,,0.00,WeatherDisplay:10.37,2013-09-06 06:37:00,
2013-09-06 02:42:00,71.2,70.9,30.03,South,182,0.0,0.0,99,0.00,CLR,,0.00,WeatherDisplay:10.37,2013-09-06 06:42:00,
2013-09-06 02:47:00,71.3,71.0,30.03,South,182,0.0,0.0,99,0.00,CLR,,0.00,WeatherDisplay:10.37,2013-09-06 06:47:00,
2013-09-06 02:52:00,71.2,70.9,30.02,South,182,0.0,0.0,99,0.00,CLR,,0.00,WeatherDisplay:10.37,2013-09-06 06:52:00,
2013-09-06 02:57:00,71.2,70.9,30.02,South,182,0.0,0.0,99,0.00,CLR,,0.00,WeatherDisplay:10.37,2013-09-06 06:57:00,
2013-09-06 03:02:00,71.1,70.8,30.02,South,182,0.0,0.0,99,0.00,CLR,,0.00,WeatherDisplay:10.37,2013-09-06 07:02:00,
2013-09-06 03:07:00,71.1,70.8,30.02,South,182,0.0,0.0,99,0.00,CLR,,0.00,WeatherDisplay:10.37,2013-09-06 07:07:00,
2013-09-06 03:12:00,71.2,70.9,30.02,South,182,0.0,0.0,99,0.00,CLR,,0.00,WeatherDisplay:10.37,2013-09-06 07:12:00,
2013-09-06 03:17:00,71.1,70.8,30.02,South,182,0.0,0.0,99,0.00,CLR,,0.00,WeatherDisplay:10.37,2013-09-06 07:17:00,
2013-09-06 03:22:00,71.0,70.7,30.02,South,182,0.0,0.0,99,0.00,CLR,,0.00,WeatherDisplay:10.37,2013-09-06 07:22:00,
2013-09-06 03:27:00,70.9,70.6,30.02,South,182,0.0,0.0,99,0.00,CLR,,0.00,WeatherDisplay:10.37,2013-09-06 07:27:00,
2013-09-06 03:32:00,70.8,70.5,30.02,South,182,0.0,0.0,99,0.00,CLR,,0.00,WeatherDisplay:10.37,2013-09-06 07:32:00,
2013-09-06 03:37:00,70.8,70.5,30.03,South,182,0.0,0.0,99,0.00,CLR,,0.00,WeatherDisplay:10.37,2013-09-06 07:37:00,
2013-09-06 03:42:00,70.7,70.4,30.03,South,182,0.0,0.0,99,0.00,CLR,,0.00,WeatherDisplay:10.37,2013-09-06 07:42:00,
2013-09-06 03:47:00,70.4,70.1,30.03,South,182,0.0,0.0,99,0.00,CLR,,0.00,WeatherDisplay:10.37,2013-09-06 07:47:00,
2013-09-06 03:52:00,70.3,70.0,30.02,South,182,0.0,0.0,99,0.00,CLR,,0.00,WeatherDisplay:10.37,2013-09-06 07:52:00,
2013-09-06 03:57:00,70.1,69.8,30.03,South,182,0.0,0.0,99,0.00,CLR,,0.00,WeatherDisplay:10.37,2013-09-06 07:57:00,
2013-09-06 04:02:00,70.0,69.7,30.02,South,182,0.0,0.0,99,0.00,CLR,,0.00,WeatherDisplay:10.37,2013-09-06 08:02:00,
2013-09-06 04:07:00,69.8,69.5,30.02,South,182,0.0,0.0,99,0.00,CLR,,0.00,WeatherDisplay:10.37,2013-09-06 08:07:00,
2013-09-06 04:12:00,69.6,69.3,30.02,South,182,0.0,0.0,99,0.00,CLR,,0.00,WeatherDisplay:10.37,2013-09-06 08:12:00,
2013-09-06 04:17:00,69.5,69.2,30.02,South,182,0.0,0.0,99,0.00,CLR,,0.00,WeatherDisplay:10.37,2013-09-06 08:17:00,
2013-09-06 04:22:00,69.5,69.2,30.02,South,182,0.0,0.0,99,0.00,CLR,,0.00,WeatherDisplay:10.37,2013-09-06 08:22:00,
2013-09-06 04:27:00,69.4,69.1,30.02,South,182,0.0,0.0,99,0.00,CLR,,0.00,WeatherDisplay:10.37,2013-09-06 08:27:00,
2013-09-06 04:32:00,69.3,69.0,30.02,South,182,0.0,0.0,99,0.00,CLR,,0.00,WeatherDisplay:10.37,2013-09-06 08:32:00,
2013-09-06 04:37:00,69.1,68.8,30.02,South,182,0.0,0.0,99,0.00,CLR,,0.00,WeatherDisplay:10.37,2013-09-06 08:37:00,
2013-09-06 04:42:00,68.9,68.6,30.02,South,182,0.0,0.0,99,0.00,CLR,,0.00,WeatherDisplay:10.37,2013-09-06 08:42:00,
2013-09-06 04:47:00,68.8,68.5,30.02,South,182,0.0,0.0,99,0.00,CLR,,0.00,WeatherDisplay:10.37,2013-09-06 08:47:00,
2013-09-06 04:52:00,68.7,68.4,30.03,South,182,0.0,0.0,99,0.00,CLR,,0.00,WeatherDisplay:10.37,2013-09-06 08:52:00,
2013-09-06 04:57:00,68.7,68.4,30.03,South,182,0.0,0.0,99,0.00,CLR,,0.00,WeatherDisplay:10.37,2013-09-06 08:57:00,
2013-09-06 05:02:00,68.7,68.4,30.03,South,182,0.0,0.0,99,0.00,CLR,,0.00,WeatherDisplay:10.37,2013-09-06 09:02:00,
2013-09-06 05:07:00,68.8,68.5,30.03,South,182,0.0,0.0,99,0.00,CLR,,0.00,WeatherDisplay:10.37,2013-09-06 09:07:00,
2013-09-06 05:12:00,68.9,68.6,30.03,South,182,0.0,0.0,99,0.00,CLR,,0.00,WeatherDisplay:10.37,2013-09-06 09:12:00,
2013-09-06 05:17:00,69.0,68.7,30.03,South,182,0.0,0.0,99,0.00,CLR,,0.00,WeatherDisplay:10.37,2013-09-06 09:17:00,
2013-09-06 05:22:00,69.0,68.7,30.03,South,182,0.0,1.1,99,0.00,CLR,,0.00,WeatherDisplay:10.37,2013-09-06 09:22:00,
2013-09-06 05:27:00,69.4,69.1,30.03,South,182,0.0,0.0,99,0.00,CLR,,0.00,WeatherDisplay:10.37,2013-09-06 09:27:00,
2013-09-06 05:32:00,69.6,69.3,30.03,South,182,0.0,0.0,99,0.00,CLR,,0.00,WeatherDisplay:10.37,2013-09-06 09:32:00,
2013-09-06 05:37:00,69.7,69.4,30.03,South,182,0.0,0.0,99,0.00,CLR,,0.00,WeatherDisplay:10.37,2013-09-06 09:37:00,
2013-09-06 05:42:00,69.8,69.5,30.03,South,182,0.0,0.0,99,0.00,CLR,,0.00,WeatherDisplay:10.37,2013-09-06 09:42:00,
2013-09-06 05:47:00,69.8,69.5,30.04,South,182,0.0,0.0,99,0.00,CLR,,0.00,WeatherDisplay:10.37,2013-09-06 09:47:00,
2013-09-06 05:52:00,69.7,69.4,30.04,South,182,0.0,0.0,99,0.00,CLR,,0.00,WeatherDisplay:10.37,2013-09-06 09:52:00,
2013-09-06 05:57:00,69.6,69.3,30.04,South,182,0.0,0.0,99,0.00,CLR,,0.00,WeatherDisplay:10.37,2013-09-06 09:57:00,
2013-09-06 06:02:00,69.5,69.2,30.04,South,182,0.0,0.0,99,0.00,CLR,,0.00,WeatherDisplay:10.37,2013-09-06 10:02:00,
2013-09-06 06:07:00,69.5,69.2,30.04,South,182,0.0,0.0,99,0.00,CLR,,0.00,WeatherDisplay:10.37,2013-09-06 10:07:00,
2013-09-06 06:12:00,69.5,69.2,30.05,South,184,1.9,3.5,99,0.00,CLR,,0.00,WeatherDisplay:10.37,2013-09-06 10:12:00,
2013-09-06 06:17:00,69.5,69.2,30.05,South,184,1.9,3.5,99,0.00,CLR,,0.00,WeatherDisplay:10.37,2013-09-06 10:17:00,
2013-09-06 06:22:00,69.5,69.2,30.05,South,184,2.0,3.5,99,0.00,CLR,,0.00,WeatherDisplay:10.37,2013-09-06 10:22:00,
2013-09-06 06:27:00,69.4,69.1,30.05,South,184,0.0,0.0,99,0.00,CLR,,0.00,WeatherDisplay:10.37,2013-09-06 10:27:00,
2013-09-06 06:32:00,69.4,69.1,30.05,South,184,0.1,1.1,99,0.00,CLR,,0.00,WeatherDisplay:10.37,2013-09-06 10:32:00,
2013-09-06 06:37:00,69.3,69.0,30.05,South,184,1.9,3.5,99,0.00,CLR,,0.00,WeatherDisplay:10.37,2013-09-06 10:37:00,
2013-09-06 06:42:00,69.2,68.9,30.05,South,184,0.4,1.1,99,0.00,CLR,,0.00,WeatherDisplay:10.37,2013-09-06 10:42:00,
2013-09-06 06:47:00,69.2,68.9,30.05,South,184,0.0,0.0,99,0.01,RA,,0.01,WeatherDisplay:10.37,2013-09-06 10:47:00,
2013-09-06 06:52:00,69.3,69.0,30.05,South,184,0.0,0.0,99,0.01,RA,,0.01,WeatherDisplay:10.37,2013-09-06 10:52:00,
2013-09-06 06:57:00,69.4,69.1,30.05,South,184,0.1,1.1,99,0.01,CLR,,0.01,WeatherDisplay:10.37,2013-09-06 10:57:00,
2013-09-06 07:02:00,69.6,69.3,30.05,South,184,0.6,3.5,99,0.01,CLR,,0.01,WeatherDisplay:10.37,2013-09-06 11:02:00,
2013-09-06 07:07:00,69.8,69.5,30.06,NW,312,2.7,3.5,99,0.01,CLR,,0.01,WeatherDisplay:10.37,2013-09-06 11:07:00,
2013-09-06 07:12:00,70.0,69.7,30.06,NW,325,3.0,3.5,99,0.01,CLR,,0.01,WeatherDisplay:10.37,2013-09-06 11:12:00,
2013-09-06 07:17:00,70.2,70.2,30.06,NNW,329,1.4,3.5,100,0.01,CLR,,0.01,WeatherDisplay:10.37,2013-09-06 11:17:00,
2013-09-06 07:22:00,70.5,70.2,30.06,NNW,330,1.9,3.5,99,0.01,CLR,,0.01,WeatherDisplay:10.37,2013-09-06 11:22:00,
2013-09-06 07:27:00,70.8,70.8,30.06,NNW,332,2.6,3.5,100,0.01,CLR,,0.01,WeatherDisplay:10.37,2013-09-06 11:27:00,
2013-09-06 07:32:00,71.3,71.3,30.06,NNW,332,2.5,3.5,100,0.01,CLR,,0.01,WeatherDisplay:10.37,2013-09-06 11:32:00,
2013-09-06 07:37:00,71.7,71.7,30.06,NNW,332,0.9,3.5,100,0.01,CLR,,0.01,WeatherDisplay:10.37,2013-09-06 11:37:00,
2013-09-06 07:42:00,72.2,72.2,30.06,NNW,332,1.7,3.5,100,0.01,CLR,,0.01,WeatherDisplay:10.37,2013-09-06 11:42:00,
2013-09-06 07:47:00,72.6,72.6,30.06,NNW,332,1.7,3.5,100,0.00,CLR,,0.01,WeatherDisplay:10.37,2013-09-06 11:47:00,
2013-09-06 07:52:00,73.0,73.0,30.06,NNW,332,1.0,3.5,100,0.00,CLR,,0.01,WeatherDisplay:10.37,2013-09-06 11:52:00,
2013-09-06 07:57:00,73.5,73.5,30.06,NNW,332,0.0,0.0,100,0.00,CLR,,0.01,WeatherDisplay:10.37,2013-09-06 11:57:00,
2013-09-06 08:02:00,73.7,73.7,30.06,NNW,332,2.1,4.0,100,0.00,CLR,,0.01,WeatherDisplay:10.37,2013-09-06 12:02:00,
2013-09-06 08:07:00,73.8,73.8,30.07,NNW,332,0.2,1.1,100,0.00,CLR,,0.01,WeatherDisplay:10.37,2013-09-06 12:07:00,
2013-09-06 08:12:00,74.1,74.1,30.07,NNW,332,0.4,3.0,100,0.00,CLR,,0.01,WeatherDisplay:10.37,2013-09-06 12:12:00,
2013-09-06 08:17:00,74.3,74.3,30.07,NNW,332,1.7,3.0,100,0.00,CLR,,0.01,WeatherDisplay:10.37,2013-09-06 12:17:00,
2013-09-06 08:22:00,74.6,74.6,30.07,NNW,333,2.3,3.5,100,0.00,CLR,,0.01,WeatherDisplay:10.37,2013-09-06 12:22:00,
2013-09-06 08:27:00,74.9,74.9,30.07,NNW,339,3.1,4.6,100,0.00,CLR,,0.01,WeatherDisplay:10.37,2013-09-06 12:27:00,
2013-09-06 08:32:00,75.3,75.3,30.07,NNW,340,2.8,3.5,100,0.00,CLR,,0.01,WeatherDisplay:10.37,2013-09-06 12:32:00,
2013-09-06 08:37:00,75.8,75.8,30.07,NNW,340,1.3,3.5,100,0.00,CLR,,0.01,WeatherDisplay:10.37,2013-09-06 12:37:00,
2013-09-06 08:42:00,76.2,76.2,30.07,NNW,340,2.4,4.6,100,0.00,CLR,,0.01,WeatherDisplay:10.37,2013-09-06 12:42:00,
2013-09-06 08:47:00,76.4,76.4,30.08,NNW,340,3.1,4.6,100,0.00,CLR,,0.01,WeatherDisplay:10.37,2013-09-06 12:47:00,
2013-09-06 08:52:00,76.7,76.7,30.08,NE,51,1.7,4.6,100,0.00,CLR,,0.01,WeatherDisplay:10.37,2013-09-06 12:52:00,
2013-09-06 08:57:00,76.9,76.9,30.08,NE,50,0.1,1.1,100,0.00,CLR,,0.01,WeatherDisplay:10.37,2013-09-06 12:57:00,
2013-09-06 09:02:00,77.1,77.1,30.08,NE,50,0.2,2.3,100,0.00,CLR,,0.01,WeatherDisplay:10.37,2013-09-06 13:02:00,
2013-09-06 09:07:00,77.3,77.3,30.09,NNE,13,0.6,3.5,100,0.00,CLR,,0.01,WeatherDisplay:10.37,2013-09-06 13:07:00,
2013-09-06 09:12:00,77.5,77.5,30.09,North,360,0.5,2.3,100,0.00,CLR,,0.01,WeatherDisplay:10.37,2013-09-06 13:12:00,
2013-09-06 09:17:00,77.3,77.3,30.08,North,5,1.2,3.5,100,0.00,CLR,,0.01,WeatherDisplay:10.37,2013-09-06 13:17:00,
2013-09-06 09:22:00,77.2,77.2,30.09,NE,35,0.0,0.0,100,0.00,CLR,,0.01,WeatherDisplay:10.37,2013-09-06 13:22:00,
2013-09-06 09:27:00,77.5,77.5,30.09,NE,35,0.0,0.0,100,0.00,CLR,,0.01,WeatherDisplay:10.37,2013-09-06 13:27:00,
2013-09-06 09:32:00,77.9,77.9,30.09,North,9,1.1,4.6,100,0.00,CLR,,0.01,WeatherDisplay:10.37,2013-09-06 13:32:00,
2013-09-06 09:37:00,78.5,78.5,30.09,NNE,18,2.8,4.6,100,0.00,CLR,,0.01,WeatherDisplay:10.37,2013-09-06 13:37:00,
2013-09-06 09:42:00,78.9,78.9,30.09,NNE,16,0.0,0.0,100,0.00,CLR,,0.01,WeatherDisplay:10.37,2013-09-06 13:42:00,
2013-09-06 09:47:00,79.2,78.9,30.09,North,9,2.4,3.5,99,0.00,CLR,,0.01,WeatherDisplay:10.37,2013-09-06 13:47:00,
2013-09-06 09:52:00,79.3,78.7,30.09,North,5,3.7,4.6,98,0.00,CLR,,0.01,WeatherDisplay:10.37,2013-09-06 13:52:00,
2013-09-06 09:57:00,79.3,78.4,30.09,North,5,1.7,6.0,97,0.00,CLR,,0.01,WeatherDisplay:10.37,2013-09-06 13:57:00,
2013-09-06 10:02:00,79.3,78.1,30.09,NNW,333,5.5,7.0,96,0.00,CLR,,0.01,WeatherDisplay:10.37,2013-09-06 14:02:00,
2013-09-06 10:07:00,79.1,77.2,30.09,NNW,346,5.2,5.8,94,0.00,CLR,,0.01,WeatherDisplay:10.37,2013-09-06 14:07:00,
2013-09-06 10:12:00,78.9,77.0,30.09,North,349,3.8,5.8,94,0.01,RA,,0.02,WeatherDisplay:10.37,2013-09-06 14:12:00,
2013-09-06 10:17:00,78.4,76.5,30.08,NNW,333,2.8,4.6,94,0.01,RA,,0.02,WeatherDisplay:10.37,2013-09-06 14:17:00,
2013-09-06 10:22:00,78.2,76.3,30.09,NNW,336,2.6,3.5,94,0.01,CLR,,0.02,WeatherDisplay:10.37,2013-09-06 14:22:00,
2013-09-06 10:27:00,77.9,76.4,30.08,NNW,336,0.0,0.0,95,0.02,RA,,0.03,WeatherDisplay:10.37,2013-09-06 14:27:00,
2013-09-06 10:32:00,77.9,76.4,30.09,ENE,63,0.2,3.5,95,0.02,RA,,0.03,WeatherDisplay:10.37,2013-09-06 14:32:00,
2013-09-06 10:37:00,77.9,76.7,30.09,ENE,66,0.1,1.1,96,0.02,CLR,,0.03,WeatherDisplay:10.37,2013-09-06 14:37:00,
2013-09-06 10:42:00,77.9,76.4,30.09,ENE,78,1.4,3.5,95,0.02,CLR,,0.03,WeatherDisplay:10.37,2013-09-06 14:42:00,
2013-09-06 10:47:00,77.7,76.2,30.09,NE,39,1.5,4.6,95,0.02,CLR,,0.03,WeatherDisplay:10.37,2013-09-06 14:47:00,
2013-09-06 10:52:00,77.6,76.1,30.09,ENE,74,2.0,4.6,95,0.02,CLR,,0.03,WeatherDisplay:10.37,2013-09-06 14:52:00,
2013-09-06 10:57:00,77.7,75.8,30.09,NE,42,0.0,2.3,94,0.02,CLR,,0.03,WeatherDisplay:10.37,2013-09-06 14:57:00,
2013-09-06 11:02:00,77.7,75.8,30.09,East,85,0.6,3.5,94,0.02,CLR,,0.03,WeatherDisplay:10.37,2013-09-06 15:02:00,
2013-09-06 11:07:00,77.7,75.8,30.09,NE,34,0.3,2.3,94,0.02,CLR,,0.03,WeatherDisplay:10.37,2013-09-06 15:07:00,
2013-09-06 11:12:00,77.7,75.5,30.09,ENE,59,0.0,1.1,93,0.01,CLR,,0.03,WeatherDisplay:10.37,2013-09-06 15:12:00,
2013-09-06 11:17:00,77.8,75.6,30.09,NE,43,1.1,3.5,93,0.01,CLR,,0.03,WeatherDisplay:10.37,2013-09-06 15:17:00,
2013-09-06 11:22:00,77.8,75.3,30.09,NE,44,2.3,6.9,92,0.01,CLR,,0.03,WeatherDisplay:10.37,2013-09-06 15:22:00,
2013-09-06 11:27:00,77.9,75.4,30.09,NE,51,0.9,3.5,92,0.00,CLR,,0.03,WeatherDisplay:10.37,2013-09-06 15:27:00,
2013-09-06 11:32:00,78.2,75.7,30.09,ENE,59,0.1,2.3,92,0.00,CLR,,0.03,WeatherDisplay:10.37,2013-09-06 15:32:00,
2013-09-06 11:37:00,78.9,76.7,30.09,ENE,67,2.1,3.5,93,0.00,CLR,,0.03,WeatherDisplay:10.37,2013-09-06 15:37:00,
2013-09-06 11:42:00,80.0,77.1,30.09,East,80,1.5,5.8,91,0.00,CLR,,0.03,WeatherDisplay:10.37,2013-09-06 15:42:00,
2013-09-06 11:47:00,80.9,77.4,30.09,NE,47,3.5,5.8,89,0.00,CLR,,0.03,WeatherDisplay:10.37,2013-09-06 15:47:00,
2013-09-06 11:52:00,81.7,76.4,30.09,NNE,23,0.6,3.5,84,0.00,CLR,,0.03,WeatherDisplay:10.37,2013-09-06 15:52:00,
2013-09-06 11:57:00,82.5,77.5,30.09,East,87,0.9,6.0,85,0.00,CLR,,0.03,WeatherDisplay:10.37,2013-09-06 15:57:00,
2013-09-06 12:02:00,82.4,76.0,30.09,SE,125,2.9,9.2,81,0.00,CLR,,0.03,WeatherDisplay:10.37,2013-09-06 16:02:00,
2013-09-06 12:07:00,82.1,76.1,30.09,East,80,7.3,12.7,82,0.00,CLR,,0.03,WeatherDisplay:10.37,2013-09-06 16:07:00,
2013-09-06 12:12:00,81.6,75.6,30.09,NE,39,3.0,8.1,82,0.00,CLR,,0.03,WeatherDisplay:10.37,2013-09-06 16:12:00,
2013-09-06 12:17:00,81.8,76.8,30.09,East,93,6.1,9.2,85,0.00,CLR,,0.03,WeatherDisplay:10.37,2013-09-06 16:17:00,
2013-09-06 12:22:00,82.7,77.4,30.09,East,91,6.3,12.7,84,0.00,CLR,,0.03,WeatherDisplay:10.37,2013-09-06 16:22:00,
2013-09-06 12:27:00,83.3,76.9,30.09,ESE,114,2.9,11.5,81,0.00,CLR,,0.03,WeatherDisplay:10.37,2013-09-06 16:27:00,
2013-09-06 12:32:00,83.9,77.1,30.09,East,98,8.6,11.5,80,0.00,CLR,,0.03,WeatherDisplay:10.37,2013-09-06 16:32:00,
2013-09-06 12:37:00,84.5,76.9,30.09,East,84,7.3,12.7,78,0.00,CLR,,0.03,WeatherDisplay:10.37,2013-09-06 16:37:00,
2013-09-06 12:42:00,84.8,77.2,30.09,East,84,2.8,6.9,78,0.00,CLR,,0.03,WeatherDisplay:10.37,2013-09-06 16:42:00,
2013-09-06 12:47:00,85.1,76.7,30.09,ESE,107,9.9,13.8,76,0.00,CLR,,0.03,WeatherDisplay:10.37,2013-09-06 16:47:00,
2013-09-06 12:52:00,85.5,77.1,30.08,East,94,9.5,12.7,76,0.00,CLR,,0.03,WeatherDisplay:10.37,2013-09-06 16:52:00,
2013-09-06 12:57:00,86.1,77.2,30.08,North,355,3.5,6.9,75,0.00,CLR,,0.03,WeatherDisplay:10.37,2013-09-06 16:57:00,
2013-09-06 13:02:00,86.1,76.4,30.08,ENE,57,2.9,5.8,73,0.00,CLR,,0.03,WeatherDisplay:10.37,2013-09-06 17:02:00,
2013-09-06 13:07:00,85.3,76.1,30.08,East,81,3.8,6.9,74,0.00,CLR,,0.03,WeatherDisplay:10.37,2013-09-06 17:07:00,
2013-09-06 13:12:00,85.0,77.4,30.08,East,93,0.7,7.0,78,0.00,CLR,,0.03,WeatherDisplay:10.37,2013-09-06 17:12:00,
2013-09-06 13:17:00,85.4,76.6,30.08,NE,42,2.3,4.6,75,0.00,CLR,,0.03,WeatherDisplay:10.37,2013-09-06 17:17:00,
2013-09-06 13:22:00,85.5,77.5,30.08,NE,54,1.8,4.6,77,0.00,CLR,,0.03,WeatherDisplay:10.37,2013-09-06 17:22:00,
2013-09-06 13:27:00,85.9,76.6,30.08,ENE,78,2.6,5.8,74,0.00,CLR,,0.03,WeatherDisplay:10.37,2013-09-06 17:27:00,
2013-09-06 13:32:00,86.0,77.1,30.08,NE,44,1.4,4.6,75,0.00,CLR,,0.03,WeatherDisplay:10.37,2013-09-06 17:32:00,
2013-09-06 13:37:00,86.5,76.8,30.08,ENE,76,0.4,5.0,73,0.00,CLR,,0.03,WeatherDisplay:10.37,2013-09-06 17:37:00,
2013-09-06 13:42:00,86.9,77.6,30.08,East,94,0.4,3.5,74,0.00,CLR,,0.03,WeatherDisplay:10.37,2013-09-06 17:42:00,
2013-09-06 13:47:00,87.3,77.6,30.08,NE,40,3.5,6.9,73,0.00,CLR,,0.03,WeatherDisplay:10.37,2013-09-06 17:47:00,
2013-09-06 13:52:00,86.8,76.7,30.08,ESE,103,1.7,10.0,72,0.00,CLR,,0.03,WeatherDisplay:10.37,2013-09-06 17:52:00,
2013-09-06 13:57:00,86.4,77.5,30.08,SSE,151,2.5,10.4,75,0.00,CLR,,0.03,WeatherDisplay:10.37,2013-09-06 17:57:00,
2013-09-06 14:02:00,86.2,76.9,30.07,NE,52,3.8,9.2,74,0.00,CLR,,0.03,WeatherDisplay:10.37,2013-09-06 18:02:00,
2013-09-06 14:07:00,85.9,77.1,30.07,NE,48,2.0,6.9,75,0.00,CLR,,0.03,WeatherDisplay:10.37,2013-09-06 18:07:00,
2013-09-06 14:12:00,86.3,77.0,30.07,NNW,342,5.6,10.4,74,0.00,CLR,,0.03,WeatherDisplay:10.37,2013-09-06 18:12:00,
2013-09-06 14:17:00,86.6,77.3,30.07,SE,144,3.7,6.9,74,0.00,CLR,,0.03,WeatherDisplay:10.37,2013-09-06 18:17:00,
2013-09-06 14:22:00,86.8,77.1,30.07,ENE,71,1.9,4.0,73,0.00,CLR,,0.03,WeatherDisplay:10.37,2013-09-06 18:22:00,
2013-09-06 14:27:00,86.9,77.6,30.06,NNE,30,1.4,4.6,74,0.00,CLR,,0.03,WeatherDisplay:10.37,2013-09-06 18:27:00,
2013-09-06 14:32:00,86.7,76.2,30.07,East,101,5.8,11.5,71,0.00,CLR,,0.03,WeatherDisplay:10.37,2013-09-06 18:32:00,
2013-09-06 14:37:00,85.6,75.1,30.06,East,87,4.1,8.1,71,0.00,CLR,,0.03,WeatherDisplay:10.37,2013-09-06 18:37:00,
2013-09-06 14:42:00,84.8,75.6,30.07,ENE,72,0.1,1.1,74,0.00,CLR,,0.03,WeatherDisplay:10.37,2013-09-06 18:42:00,
2013-09-06 14:47:00,84.3,75.5,30.06,ENE,73,1.4,3.5,75,0.00,CLR,,0.03,WeatherDisplay:10.37,2013-09-06 18:47:00,
2013-09-06 14:52:00,84.4,76.0,30.06,East,80,0.7,2.3,76,0.00,CLR,,0.03,WeatherDisplay:10.37,2013-09-06 18:52:00,
2013-09-06 14:57:00,84.5,75.3,30.06,ESE,103,0.8,3.5,74,0.00,CLR,,0.03,WeatherDisplay:10.37,2013-09-06 18:57:00,
2013-09-06 15:02:00,84.1,74.9,30.07,ENE,58,1.2,3.5,74,0.00,CLR,,0.03,WeatherDisplay:10.37,2013-09-06 19:02:00,
2013-09-06 15:07:00,83.7,75.3,30.06,East,80,0.5,3.5,76,0.00,CLR,,0.03,WeatherDisplay:10.37,2013-09-06 19:07:00,
2013-09-06 15:12:00,83.3,74.5,30.06,East,85,2.1,5.0,75,0.00,CLR,,0.03,WeatherDisplay:10.37,2013-09-06 19:12:00,
2013-09-06 15:17:00,83.2,74.8,30.06,ENE,60,0.7,3.5,76,0.00,CLR,,0.03,WeatherDisplay:10.37,2013-09-06 19:17:00,
2013-09-06 15:22:00,83.1,75.5,30.06,East,96,0.7,3.5,78,0.00,CLR,,0.03,WeatherDisplay:10.37,2013-09-06 19:22:00,
2013-09-06 15:27:00,83.8,75.8,30.05,NE,44,1.2,6.9,77,0.00,CLR,,0.03,WeatherDisplay:10.37,2013-09-06 19:27:00,
2013-09-06 15:32:00,84.4,74.8,30.05,ESE,119,2.3,4.6,73,0.00,CLR,,0.03,WeatherDisplay:10.37,2013-09-06 19:32:00,
2013-09-06 15:37:00,84.3,74.7,30.05,NNE,32,0.6,3.0,73,0.00,CLR,,0.03,WeatherDisplay:10.37,2013-09-06 19:37:00,
2013-09-06 15:42:00,83.8,74.6,30.05,NE,47,2.2,5.0,74,0.00,CLR,,0.03,WeatherDisplay:10.37,2013-09-06 19:42:00,
2013-09-06 15:47:00,83.2,74.0,30.05,ENE,74,2.4,6.9,74,0.00,CLR,,0.03,WeatherDisplay:10.37,2013-09-06 19:47:00,
2013-09-06 15:52:00,82.8,74.5,30.05,NNE,32,1.8,3.5,76,0.00,CLR,,0.03,WeatherDisplay:10.37,2013-09-06 19:52:00,
2013-09-06 15:57:00,82.5,74.6,30.05,NE,47,1.9,3.5,77,0.00,CLR,,0.03,WeatherDisplay:10.37,2013-09-06 19:57:00,
2013-09-06 16:02:00,82.8,75.2,30.05,NNE,28,1.3,4.6,78,0.00,CLR,,0.03,WeatherDisplay:10.37,2013-09-06 20:02:00,
2013-09-06 16:07:00,83.3,74.9,30.05,ENE,68,0.7,3.5,76,0.00,CLR,,0.03,WeatherDisplay:10.37,2013-09-06 20:07:00,
2013-09-06 16:12:00,83.0,74.6,30.05,ENE,71,2.7,6.9,76,0.00,CLR,,0.03,WeatherDisplay:10.37,2013-09-06 20:12:00,
2013-09-06 16:17:00,82.4,74.5,30.05,ENE,64,0.4,2.0,77,0.00,CLR,,0.03,WeatherDisplay:10.37,2013-09-06 20:17:00,
2013-09-06 16:22:00,82.3,74.7,30.05,NNE,23,4.5,9.2,78,0.00,CLR,,0.03,WeatherDisplay:10.37,2013-09-06 20:22:00,
2013-09-06 16:27:00,82.6,74.7,30.05,ESE,118,2.2,6.9,77,0.00,CLR,,0.03,WeatherDisplay:10.37,2013-09-06 20:27:00,
2013-09-06 16:32:00,83.1,75.1,30.05,NE,55,1.1,3.5,77,0.00,CLR,,0.03,WeatherDisplay:10.37,2013-09-06 20:32:00,
2013-09-06 16:37:00,82.9,74.9,30.05,NE,40,1.4,5.0,77,0.00,CLR,,0.03,WeatherDisplay:10.37,2013-09-06 20:37:00,
2013-09-06 16:42:00,82.3,74.0,30.05,NE,46,3.3,6.9,76,0.00,CLR,,0.03,WeatherDisplay:10.37,2013-09-06 20:42:00,
2013-09-06 16:47:00,81.8,73.9,30.05,NE,41,1.6,6.9,77,0.00,CLR,,0.03,WeatherDisplay:10.37,2013-09-06 20:47:00,
2013-09-06 16:52:00,81.5,73.2,30.05,ENE,61,1.1,4.6,76,0.00,CLR,,0.03,WeatherDisplay:10.37,2013-09-06 20:52:00,
2013-09-06 16:57:00,81.6,73.3,30.05,NNE,13,3.6,10.4,76,0.00,CLR,,0.03,WeatherDisplay:10.37,2013-09-06 20:57:00,
2013-09-06 17:02:00,81.6,73.3,30.05,NE,44,2.7,4.6,76,0.00,CLR,,0.03,WeatherDisplay:10.37,2013-09-06 21:02:00,
2013-09-06 17:07:00,81.3,73.4,30.06,SSE,159,2.8,6.9,77,0.00,CLR,,0.03,WeatherDisplay:10.37,2013-09-06 21:07:00,
2013-09-06 17:12:00,80.8,72.9,30.05,ENE,61,3.3,5.8,77,0.00,CLR,,0.03,WeatherDisplay:10.37,2013-09-06 21:12:00,
2013-09-06 17:17:00,80.2,72.3,30.05,NNE,30,3.5,6.9,77,0.00,CLR,,0.03,WeatherDisplay:10.37,2013-09-06 21:17:00,
2013-09-06 17:22:00,79.6,72.5,30.06,East,101,1.4,3.5,79,0.00,CLR,,0.03,WeatherDisplay:10.37,2013-09-06 21:22:00,
2013-09-06 17:27:00,79.2,72.5,30.06,NE,42,1.8,4.6,80,0.00,CLR,,0.03,WeatherDisplay:10.37,2013-09-06 21:27:00,
2013-09-06 17:32:00,78.9,72.6,30.05,ENE,76,0.7,3.5,81,0.00,CLR,,0.03,WeatherDisplay:10.37,2013-09-06 21:32:00,
2013-09-06 17:37:00,78.6,72.3,30.06,NE,40,0.2,1.1,81,0.00,CLR,,0.03,WeatherDisplay:10.37,2013-09-06 21:37:00,
2013-09-06 17:42:00,78.4,72.1,30.06,NE,53,3.8,10.4,81,0.00,CLR,,0.03,WeatherDisplay:10.37,2013-09-06 21:42:00,
2013-09-06 17:47:00,78.3,72.3,30.05,NE,55,3.2,4.6,82,0.00,CLR,,0.03,WeatherDisplay:10.37,2013-09-06 21:47:00,
2013-09-06 17:52:00,78.4,72.4,30.05,East,83,2.0,4.6,82,0.00,CLR,,0.03,WeatherDisplay:10.37,2013-09-06 21:52:00,
2013-09-06 17:57:00,78.6,72.3,30.05,NE,42,1.4,4.6,81,0.00,CLR,,0.03,WeatherDisplay:10.37,2013-09-06 21:57:00,
2013-09-06 18:02:00,78.3,72.3,30.05,NE,41,3.1,4.6,82,0.00,CLR,,0.03,WeatherDisplay:10.37,2013-09-06 22:02:00,
2013-09-06 18:07:00,77.9,71.6,30.05,ENE,68,3.1,6.9,81,0.00,CLR,,0.03,WeatherDisplay:10.37,2013-09-06 22:07:00,
2013-09-06 18:12:00,77.6,71.7,30.05,ENE,73,1.4,3.5,82,0.00,CLR,,0.03,WeatherDisplay:10.37,2013-09-06 22:12:00,
2013-09-06 18:17:00,77.3,71.7,30.05,NE,47,1.8,5.8,83,0.00,CLR,,0.03,WeatherDisplay:10.37,2013-09-06 22:17:00,
2013-09-06 18:22:00,77.2,71.6,30.05,NE,50,2.1,4.6,83,0.00,CLR,,0.03,WeatherDisplay:10.37,2013-09-06 22:22:00,
2013-09-06 18:27:00,77.1,71.5,30.05,NE,49,0.8,4.6,83,0.00,CLR,,0.03,WeatherDisplay:10.37,2013-09-06 22:27:00,
2013-09-06 18:32:00,77.1,71.5,30.05,NE,35,2.1,4.0,83,0.00,CLR,,0.03,WeatherDisplay:10.37,2013-09-06 22:32:00,
2013-09-06 18:37:00,77.2,71.6,30.06,NNE,25,2.6,6.9,83,0.00,CLR,,0.03,WeatherDisplay:10.37,2013-09-06 22:37:00,
2013-09-06 18:42:00,77.1,71.5,30.06,ENE,57,0.6,2.3,83,0.00,CLR,,0.03,WeatherDisplay:10.37,2013-09-06 22:42:00,
2013-09-06 18:47:00,76.9,71.3,30.06,NE,43,0.6,4.6,83,0.00,CLR,,0.03,WeatherDisplay:10.37,2013-09-06 22:47:00,
2013-09-06 18:52:00,76.7,71.1,30.06,NE,53,0.0,1.1,83,0.00,CLR,,0.03,WeatherDisplay:10.37,2013-09-06 22:52:00,
2013-09-06 18:57:00,76.6,71.0,30.06,NE,44,0.1,3.5,83,0.00,CLR,,0.03,WeatherDisplay:10.37,2013-09-06 22:57:00,
2013-09-06 19:02:00,76.4,70.9,30.06,NE,46,0.2,2.3,83,0.00,CLR,,0.03,WeatherDisplay:10.37,2013-09-06 23:02:00,
2013-09-06 19:07:00,76.3,71.1,30.06,ENE,57,1.2,3.5,84,0.00,CLR,,0.03,WeatherDisplay:10.37,2013-09-06 23:07:00,
2013-09-06 19:12:00,76.0,70.8,30.06,NE,36,1.4,4.6,84,0.00,CLR,,0.03,WeatherDisplay:10.37,2013-09-06 23:12:00,
2013-09-06 19:17:00,75.7,70.5,30.06,ENE,66,1.2,3.5,84,0.00,CLR,,0.03,WeatherDisplay:10.37,2013-09-06 23:17:00,
2013-09-06 19:22:00,75.5,70.3,30.06,ENE,67,1.2,4.6,84,0.00,CLR,,0.03,WeatherDisplay:10.37,2013-09-06 23:22:00,
2013-09-06 19:27:00,75.3,70.1,30.06,NE,49,0.6,3.5,84,0.00,CLR,,0.03,WeatherDisplay:10.37,2013-09-06 23:27:00,
2013-09-06 19:32:00,75.0,70.2,30.06,NE,49,0.1,1.1,85,0.00,CLR,,0.03,WeatherDisplay:10.37,2013-09-06 23:32:00,
2013-09-06 19:37:00,74.9,70.1,30.06,NE,46,0.7,3.5,85,0.00,CLR,,0.03,WeatherDisplay:10.37,2013-09-06 23:37:00,
2013-09-06 19:42:00,74.7,69.9,30.05,NE,36,0.6,4.6,85,0.00,CLR,,0.03,WeatherDisplay:10.37,2013-09-06 23:42:00,
2013-09-06 19:47:00,74.5,69.7,30.06,NE,38,0.2,3.5,85,0.00,CLR,,0.03,WeatherDisplay:10.37,2013-09-06 23:47:00,
2013-09-06 19:52:00,74.3,69.5,30.06,East,98,2.0,3.5,85,0.00,CLR,,0.03,WeatherDisplay:10.37,2013-09-06 23:52:00,
2013-09-06 19:57:00,74.1,69.3,30.05,NE,52,2.2,4.6,85,0.00,CLR,,0.03,WeatherDisplay:10.37,2013-09-06 23:57:00,
2013-09-06 20:02:00,73.9,69.4,30.06,NE,42,0.1,1.1,86,0.00,CLR,,0.03,WeatherDisplay:10.37,2013-09-07 00:02:00,
2013-09-06 20:07:00,73.8,69.3,30.06,NE,43,0.5,1.1,86,0.00,CLR,,0.03,WeatherDisplay:10.37,2013-09-07 00:07:00,
2013-09-06 20:12:00,73.5,69.1,30.07,ENE,61,1.1,3.5,86,0.00,CLR,,0.03,WeatherDisplay:10.37,2013-09-07 00:12:00,
2013-09-06 20:17:00,73.4,69.0,30.07,ENE,60,0.7,3.5,86,0.00,CLR,,0.03,WeatherDisplay:10.37,2013-09-07 00:17:00,
2013-09-06 20:22:00,73.2,69.1,30.07,NE,49,0.7,3.5,87,0.00,CLR,,0.03,WeatherDisplay:10.37,2013-09-07 00:22:00,
2013-09-06 20:27:00,73.1,69.0,30.07,NE,53,0.4,3.5,87,0.00,CLR,,0.03,WeatherDisplay:10.37,2013-09-07 00:27:00,
2013-09-06 20:32:00,73.0,68.9,30.07,NE,42,0.2,1.1,87,0.00,CLR,,0.03,WeatherDisplay:10.37,2013-09-07 00:32:00,
2013-09-06 20:37:00,72.9,68.8,30.07,NNE,27,0.5,2.3,87,0.00,CLR,,0.03,WeatherDisplay:10.37,2013-09-07 00:37:00,
2013-09-06 20:42:00,72.8,68.7,30.07,NE,43,0.1,1.1,87,0.00,CLR,,0.03,WeatherDisplay:10.37,2013-09-07 00:42:00,
2013-09-06 20:47:00,72.7,68.6,30.07,NE,46,0.1,1.1,87,0.00,CLR,,0.03,WeatherDisplay:10.37,2013-09-07 00:47:00,
2013-09-06 20:52:00,72.6,68.5,30.07,NE,50,0.4,2.3,87,0.00,CLR,,0.03,WeatherDisplay:10.37,2013-09-07 00:52:00,
2013-09-06 20:57:00,72.6,68.5,30.07,NE,50,0.1,3.5,87,0.00,CLR,,0.03,WeatherDisplay:10.37,2013-09-07 00:57:00,
2013-09-06 21:03:00,72.4,68.3,30.07,NE,46,0.2,2.3,87,0.00,CLR,,0.03,WeatherDisplay:10.37,2013-09-07 01:03:00,
2013-09-06 21:08:00,72.3,68.2,30.07,NE,48,0.1,1.1,87,0.00,CLR,,0.03,WeatherDisplay:10.37,2013-09-07 01:08:00,
2013-09-06 21:13:00,72.2,68.1,30.08,NE,48,0.2,1.1,87,0.00,CLR,,0.03,WeatherDisplay:10.37,2013-09-07 01:13:00,
2013-09-06 21:18:00,72.0,68.2,30.08,NE,46,0.7,3.5,88,0.00,CLR,,0.03,WeatherDisplay:10.37,2013-09-07 01:18:00,
2013-09-06 21:23:00,71.9,68.2,30.08,NE,53,0.1,1.1,88,0.00,CLR,,0.03,WeatherDisplay:10.37,2013-09-07 01:23:00,
2013-09-06 21:28:00,71.8,68.1,30.08,NE,55,0.3,2.3,88,0.00,CLR,,0.03,WeatherDisplay:10.37,2013-09-07 01:28:00,
2013-09-06 21:33:00,71.7,68.0,30.08,NE,55,0.3,2.3,88,0.00,CLR,,0.03,WeatherDisplay:10.37,2013-09-07 01:33:00,
2013-09-06 21:38:00,71.6,67.9,30.08,NE,55,0.0,1.1,88,0.00,CLR,,0.03,WeatherDisplay:10.37,2013-09-07 01:38:00,
2013-09-06 21:43:00,71.5,67.8,30.08,NE,55,0.0,1.1,88,0.00,CLR,,0.03,WeatherDisplay:10.37,2013-09-07 01:43:00,
2013-09-06 21:48:00,71.3,67.9,30.08,NE,55,0.1,1.1,89,0.00,CLR,,0.03,WeatherDisplay:10.37,2013-09-07 01:48:00,
2013-09-06 21:53:00,71.2,67.8,30.08,NE,55,0.0,0.0,89,0.00,CLR,,0.03,WeatherDisplay:10.37,2013-09-07 01:53:00,
2013-09-06 21:58:00,71.1,67.7,30.08,NE,56,0.5,1.1,89,0.00,CLR,,0.03,WeatherDisplay:10.37,2013-09-07 01:58:00,
2013-09-06 22:03:00,71.0,67.6,30.08,NE,56,0.1,1.1,89,0.00,CLR,,0.03,WeatherDisplay:10.37,2013-09-07 02:03:00,
2013-09-06 22:08:00,71.0,67.6,30.09,NE,55,0.6,2.3,89,0.00,CLR,,0.03,WeatherDisplay:10.37,2013-09-07 02:08:00,
2013-09-06 22:13:00,71.0,67.6,30.09,NE,53,0.4,2.3,89,0.00,CLR,,0.03,WeatherDisplay:10.37,2013-09-07 02:13:00,
2013-09-06 22:18:00,71.1,67.7,30.08,ENE,57,0.5,3.5,89,0.00,CLR,,0.03,WeatherDisplay:10.37,2013-09-07 02:18:00,
2013-09-06 22:23:00,71.2,67.8,30.08,ENE,57,0.4,2.3,89,0.00,CLR,,0.03,WeatherDisplay:10.37,2013-09-07 02:23:00,
2013-09-06 22:28:00,71.2,67.5,30.08,NE,51,0.2,3.5,88,0.00,CLR,,0.03,WeatherDisplay:10.37,2013-09-07 02:28:00,
2013-09-06 22:33:00,71.2,67.5,30.09,NE,50,0.2,1.1,88,0.00,CLR,,0.03,WeatherDisplay:10.37,2013-09-07 02:33:00,
2013-09-06 22:38:00,71.2,67.5,30.09,NE,49,1.1,3.5,88,0.00,CLR,,0.03,WeatherDisplay:10.37,2013-09-07 02:38:00,
2013-09-06 22:43:00,71.1,67.4,30.09,NE,48,0.2,3.5,88,0.00,CLR,,0.03,WeatherDisplay:10.37,2013-09-07 02:43:00,
2013-09-06 22:48:00,71.1,67.0,30.09,NE,49,0.8,2.3,87,0.00,CLR,,0.03,WeatherDisplay:10.37,2013-09-07 02:48:00,
2013-09-06 22:53:00,71.1,67.0,30.09,NE,50,0.5,2.3,87,0.00,CLR,,0.03,WeatherDisplay:10.37,2013-09-07 02:53:00,
2013-09-06 22:58:00,71.0,66.9,30.09,NE,48,0.7,1.1,87,0.00,CLR,,0.03,WeatherDisplay:10.37,2013-09-07 02:58:00,
2013-09-06 23:03:00,71.0,67.3,30.09,NE,44,0.2,2.3,88,0.00,CLR,,0.03,WeatherDisplay:10.37,2013-09-07 03:03:00,
2013-09-06 23:08:00,70.8,67.1,30.09,NE,50,0.0,0.0,88,0.00,CLR,,0.03,WeatherDisplay:10.37,2013-09-07 03:08:00,
2013-09-06 23:13:00,70.7,67.0,30.09,NE,50,0.0,1.1,88,0.00,CLR,,0.03,WeatherDisplay:10.37,2013-09-07 03:13:00,
2013-09-06 23:18:00,70.6,66.9,30.09,NE,50,0.1,2.3,88,0.00,CLR,,0.03,WeatherDisplay:10.37,2013-09-07 03:18:00,
2013-09-06 23:23:00,70.5,66.8,30.09,NE,51,0.0,0.0,88,0.00,CLR,,0.03,WeatherDisplay:10.37,2013-09-07 03:23:00,
2013-09-06 23:28:00,70.4,66.7,30.08,NE,51,0.0,1.1,88,0.00,CLR,,0.03,WeatherDisplay:10.37,2013-09-07 03:28:00,
2013-09-06 23:33:00,70.3,66.6,30.08,NE,51,0.0,0.0,88,0.00,CLR,,0.03,WeatherDisplay:10.37,2013-09-07 03:33:00,
2013-09-06 23:38:00,70.3,66.6,30.08,NE,51,0.0,1.1,88,0.00,CLR,,0.03,WeatherDisplay:10.37,2013-09-07 03:38:00,
2013-09-06 23:43:00,70.2,66.5,30.08,NE,40,1.3,4.6,88,0.00,CLR,,0.03,WeatherDisplay:10.37,2013-09-07 03:43:00,
2013-09-06 23:48:00,70.1,66.4,30.08,NE,54,0.1,1.1,88,0.00,CLR,,0.03,WeatherDisplay:10.37,2013-09-07 03:48:00,
2013-09-06 23:53:00,70.1,66.0,30.08,NE,55,0.4,2.3,87,0.00,CLR,,0.03,WeatherDisplay:10.37,2013-09-07 03:53:00,
2013-09-06 23:58:00,70.1,66.0,30.08,NE,45,0.2,2.3,87,0.00,CLR,,0.03,WeatherDisplay:10.37,2013-09-07 03:58:00,